Погода Мендисна 2 недели

Рио-де-Жанейро, Бразилия

16 - 28 июня
  • 16июня
    Сегодня
    +16°
    +29°
    Ясно и безоблачно
    ВремяПогодаТемператураВлажностьДавлениеВетер, м/сВероятность осадков
    00:00Ясно и безоблачно+18°C67 %713 мм4.5 м/с5 %
    03:00Ясно и безоблачно+17°C73 %713 мм4.2 м/с5 %
    06:00Ясно и безоблачно+17°C79 %713 мм3.7 м/с5 %
    09:00Ясно и безоблачно+21°C66 %714 мм4.0 м/с5 %
    12:00Ясно и безоблачно+28°C48 %714 мм3.7 м/с5 %
    15:00Ясно и безоблачно+29°C48 %712 мм3.1 м/с5 %
    18:00Ясно и безоблачно+22°C61 %712 мм3.2 м/с5 %
    21:00Ясно и безоблачно+20°C70 %712 мм3.9 м/с5 %
  • 17июня
    Понедельник
    +16°
    +30°
    Ясно и безоблачно
    ВремяПогодаТемператураВлажностьДавлениеВетер, м/сВероятность осадков
    00:00Ясно и безоблачно+18°C76 %712 мм4.4 м/с5 %
    03:00Ясно и безоблачно+17°C81 %711 мм3.8 м/с5 %
    06:00Ясно и безоблачно+16°C85 %711 мм3.4 м/с5 %
    09:00Ясно и безоблачно+21°C68 %713 мм3.8 м/с5 %
    12:00Ясно и безоблачно+28°C50 %712 мм3.8 м/с5 %
    15:00Ясно и безоблачно+29°C45 %711 мм2.9 м/с5 %
    18:00Ясно и безоблачно+23°C59 %710 мм4.0 м/с5 %
    21:00Ясно и безоблачно+20°C65 %711 мм3.9 м/с5 %
  • 18июня
    Вторник
    +17°
    +31°
    Ясно и безоблачно
    ВремяПогодаТемператураВлажностьДавлениеВетер, м/сВероятность осадков
    00:00Ясно и безоблачно+18°C72 %711 мм4.5 м/с5 %
    03:00Ясно и безоблачно+18°C73 %710 мм4.7 м/с5 %
    06:00Ясно и безоблачно+17°C78 %710 мм3.9 м/с5 %
    09:00Ясно и безоблачно+22°C65 %712 мм4.1 м/с5 %
    12:00Ясно и безоблачно+29°C47 %712 мм4.0 м/с5 %
    15:00Ясно и безоблачно+30°C38 %710 мм2.6 м/с5 %
    18:00Практически безоблачно+23°C56 %710 мм1.3 м/с5 %
    21:00Практически безоблачно+20°C60 %711 мм3.3 м/с5 %
  • 19июня
    Среда
    +18°
    +32°
    Ясно и безоблачно
    ВремяПогодаТемператураВлажностьДавлениеВетер, м/сВероятность осадков
    00:00Ясно и безоблачно+19°C65 %711 мм3.5 м/с5 %
    03:00Практически безоблачно+18°C73 %711 мм3.1 м/с5 %
    06:00Ясно и безоблачно+17°C75 %711 мм3.5 м/с5 %
    09:00Ясно и безоблачно+22°C63 %713 мм3.2 м/с5 %
    12:00Ясно и безоблачно+30°C44 %713 мм3.9 м/с5 %
    15:00Ясно и безоблачно+31°C36 %712 мм1.7 м/с5 %
    18:00Ясно и безоблачно+23°C58 %711 мм1.4 м/с5 %
    21:00Ясно и безоблачно+20°C67 %712 мм1.7 м/с5 %
Мы используем cookies
Соглашаюсь